<?xml version="1.0" encoding="UTF-8" standalone="no" ?>
<gpx xmlns="http://www.topografix.com/GPX/1/1" xmlns:xsi="http://www.w3.org/2001/XMLSchema-instance" xsi:schemaLocation="http://www.topografix.com/GPX/1/1 http://www.topografix.com/GPX/1/1/gpx.xsd" version="1.1" creator="VisuGPX - https://www.visugpx.com">
  <metadata>
    <name>plaine joux, approche vers tete de Moede</name>
    <desc><![CDATA[plaine joux, approche vers tete de Moede]]></desc>
  </metadata>
  <trk>
    <name><![CDATA[2013-03-03 07:46]]></name>
    <desc><![CDATA[<h1>OruxMaps</h1><br /><hr align="center" width="480" style="height: 2px; width: 517px"/><h2>Nom: 2013-03-03 07:46</h2><br /><p>Temps de départ: 03/03/2013 07:51</p><p>Temps d'arrivée: 03/03/2013 11:26</p><p>Distance: 13 km (03:35)</p><p>Temps déplacement: 02:38</p><p>Vitesse moyenne: 3,6 km/h</p><p>Vitesse moyenne: 4,9 km/h</p><p>Vitess Max.: 52 km/h</p><p>Altitude minimale: 1401 m</p><p>Altitude maximale: 2415 m</p><p>Vitesse d'élévation: 379,6 m/h</p><p>Vitesse de descente: -1639 m/h</p><p>Gain Altitude: 1029 m</p><p>Perte Altitude: -942 m</p><p>Temps d'élévation: 02:42</p><p>Temps de descente: 00:34</p><hr align="center" width="480" style="height: 2px; width: 517px"/>]]></desc>
    <trkseg>
      <trkpt lat="45.95126" lon="6.73993">
        <ele>1414.75</ele>
        <time>2013-03-03T06:51:18Z</time>
      </trkpt>
      <trkpt lat="45.9513" lon="6.74019">
        <ele>1409.7296</ele>
        <time>2013-03-03T06:52:06Z</time>
      </trkpt>
      <trkpt lat="45.95129" lon="6.74045">
        <ele>1411.8405</ele>
        <time>2013-03-03T06:52:25Z</time>
      </trkpt>
      <trkpt lat="45.95139" lon="6.74068">
        <ele>1414.0479</ele>
        <time>2013-03-03T06:52:45Z</time>
      </trkpt>
      <trkpt lat="45.95135" lon="6.74097">
        <ele>1415.1603</ele>
        <time>2013-03-03T06:53:14Z</time>
      </trkpt>
      <trkpt lat="45.95126" lon="6.7412">
        <ele>1422.1417</ele>
        <time>2013-03-03T06:53:22Z</time>
      </trkpt>
      <trkpt lat="45.9511" lon="6.74106">
        <ele>1420.3079</ele>
        <time>2013-03-03T06:53:33Z</time>
      </trkpt>
      <trkpt lat="45.95091" lon="6.74102">
        <ele>1418.5209</ele>
        <time>2013-03-03T06:53:43Z</time>
      </trkpt>
      <trkpt lat="45.95073" lon="6.74101">
        <ele>1416.8907</ele>
        <time>2013-03-03T06:53:55Z</time>
      </trkpt>
      <trkpt lat="45.95063" lon="6.74122">
        <ele>1416.5073</ele>
        <time>2013-03-03T06:54:08Z</time>
      </trkpt>
      <trkpt lat="45.95069" lon="6.74146">
        <ele>1416.8378</ele>
        <time>2013-03-03T06:54:27Z</time>
      </trkpt>
      <trkpt lat="45.95068" lon="6.74173">
        <ele>1417.5046</ele>
        <time>2013-03-03T06:54:43Z</time>
      </trkpt>
      <trkpt lat="45.95063" lon="6.74199">
        <ele>1418.0999</ele>
        <time>2013-03-03T06:54:58Z</time>
      </trkpt>
      <trkpt lat="45.95056" lon="6.74223">
        <ele>1418.2941</ele>
        <time>2013-03-03T06:55:12Z</time>
      </trkpt>
      <trkpt lat="45.95048" lon="6.74247">
        <ele>1417.96</ele>
        <time>2013-03-03T06:55:26Z</time>
      </trkpt>
      <trkpt lat="45.95039" lon="6.74271">
        <ele>1417.8054</ele>
        <time>2013-03-03T06:55:40Z</time>
      </trkpt>
      <trkpt lat="45.95029" lon="6.74293">
        <ele>1419.3385</ele>
        <time>2013-03-03T06:55:54Z</time>
      </trkpt>
      <trkpt lat="45.95019" lon="6.74316">
        <ele>1420.6654</ele>
        <time>2013-03-03T06:56:07Z</time>
      </trkpt>
      <trkpt lat="45.95011" lon="6.74339">
        <ele>1420.8601</ele>
        <time>2013-03-03T06:56:17Z</time>
      </trkpt>
      <trkpt lat="45.95001" lon="6.74362">
        <ele>1421.2678</ele>
        <time>2013-03-03T06:56:31Z</time>
      </trkpt>
      <trkpt lat="45.94993" lon="6.74386">
        <ele>1421.3291</ele>
        <time>2013-03-03T06:56:44Z</time>
      </trkpt>
      <trkpt lat="45.94985" lon="6.7441">
        <ele>1422.0311</ele>
        <time>2013-03-03T06:56:59Z</time>
      </trkpt>
      <trkpt lat="45.94977" lon="6.74434">
        <ele>1421.132</ele>
        <time>2013-03-03T06:57:14Z</time>
      </trkpt>
      <trkpt lat="45.94975" lon="6.74461">
        <ele>1419.968</ele>
        <time>2013-03-03T06:57:22Z</time>
      </trkpt>
      <trkpt lat="45.94975" lon="6.74487">
        <ele>1421.6003</ele>
        <time>2013-03-03T06:57:30Z</time>
      </trkpt>
      <trkpt lat="45.94973" lon="6.74514">
        <ele>1423.2405</ele>
        <time>2013-03-03T06:57:39Z</time>
      </trkpt>
      <trkpt lat="45.94969" lon="6.74541">
        <ele>1424.8666</ele>
        <time>2013-03-03T06:57:50Z</time>
      </trkpt>
      <trkpt lat="45.94962" lon="6.74565">
        <ele>1424.5366</ele>
        <time>2013-03-03T06:58:02Z</time>
      </trkpt>
      <trkpt lat="45.94952" lon="6.74589">
        <ele>1423.7719</ele>
        <time>2013-03-03T06:58:15Z</time>
      </trkpt>
      <trkpt lat="45.9495" lon="6.74617">
        <ele>1422.5094</ele>
        <time>2013-03-03T06:58:26Z</time>
      </trkpt>
      <trkpt lat="45.94952" lon="6.74644">
        <ele>1421.2429</ele>
        <time>2013-03-03T06:58:34Z</time>
      </trkpt>
      <trkpt lat="45.94953" lon="6.74671">
        <ele>1419.9668</ele>
        <time>2013-03-03T06:58:42Z</time>
      </trkpt>
      <trkpt lat="45.94955" lon="6.74698">
        <ele>1419.2146</ele>
        <time>2013-03-03T06:58:51Z</time>
      </trkpt>
      <trkpt lat="45.94957" lon="6.74726">
        <ele>1418.1794</ele>
        <time>2013-03-03T06:58:59Z</time>
      </trkpt>
      <trkpt lat="45.94962" lon="6.74752">
        <ele>1417.423</ele>
        <time>2013-03-03T06:59:08Z</time>
      </trkpt>
      <trkpt lat="45.94981" lon="6.74758">
        <ele>1416.9004</ele>
        <time>2013-03-03T06:59:22Z</time>
      </trkpt>
      <trkpt lat="45.94997" lon="6.74747">
        <ele>1416.5525</ele>
        <time>2013-03-03T06:59:34Z</time>
      </trkpt>
      <trkpt lat="45.95016" lon="6.74747">
        <ele>1416.4061</ele>
        <time>2013-03-03T06:59:43Z</time>
      </trkpt>
      <trkpt lat="45.95033" lon="6.74759">
        <ele>1415.7301</ele>
        <time>2013-03-03T06:59:54Z</time>
      </trkpt>
      <trkpt lat="45.95044" lon="6.74781">
        <ele>1414.7134</ele>
        <time>2013-03-03T07:00:05Z</time>
      </trkpt>
      <trkpt lat="45.95056" lon="6.74802">
        <ele>1414.5868</ele>
        <time>2013-03-03T07:00:17Z</time>
      </trkpt>
      <trkpt lat="45.95061" lon="6.74828">
        <ele>1415.8438</ele>
        <time>2013-03-03T07:00:28Z</time>
      </trkpt>
      <trkpt lat="45.95063" lon="6.74856">
        <ele>1417.0978</ele>
        <time>2013-03-03T07:00:37Z</time>
      </trkpt>
      <trkpt lat="45.95068" lon="6.74881">
        <ele>1417.209</ele>
        <time>2013-03-03T07:00:46Z</time>
      </trkpt>
      <trkpt lat="45.95074" lon="6.74907">
        <ele>1417.0133</ele>
        <time>2013-03-03T07:00:56Z</time>
      </trkpt>
      <trkpt lat="45.95078" lon="6.74934">
        <ele>1415.6395</ele>
        <time>2013-03-03T07:01:09Z</time>
      </trkpt>
      <trkpt lat="45.95079" lon="6.7496">
        <ele>1415.049</ele>
        <time>2013-03-03T07:01:21Z</time>
      </trkpt>
      <trkpt lat="45.9508" lon="6.74987">
        <ele>1414.0292</ele>
        <time>2013-03-03T07:01:32Z</time>
      </trkpt>
      <trkpt lat="45.95085" lon="6.75014">
        <ele>1415.0557</ele>
        <time>2013-03-03T07:01:45Z</time>
      </trkpt>
      <trkpt lat="45.95092" lon="6.75039">
        <ele>1413.5286</ele>
        <time>2013-03-03T07:01:57Z</time>
      </trkpt>
      <trkpt lat="45.95104" lon="6.75058">
        <ele>1410.1923</ele>
        <time>2013-03-03T07:02:10Z</time>
      </trkpt>
      <trkpt lat="45.95118" lon="6.75076">
        <ele>1407.474</ele>
        <time>2013-03-03T07:02:24Z</time>
      </trkpt>
      <trkpt lat="45.95135" lon="6.75089">
        <ele>1406.5782</ele>
        <time>2013-03-03T07:02:38Z</time>
      </trkpt>
      <trkpt lat="45.95147" lon="6.75108">
        <ele>1405.7561</ele>
        <time>2013-03-03T07:02:53Z</time>
      </trkpt>
      <trkpt lat="45.95159" lon="6.75129">
        <ele>1405.2987</ele>
        <time>2013-03-03T07:03:09Z</time>
      </trkpt>
      <trkpt lat="45.95175" lon="6.75145">
        <ele>1404.6941</ele>
        <time>2013-03-03T07:03:24Z</time>
      </trkpt>
      <trkpt lat="45.95191" lon="6.75158">
        <ele>1404.5265</ele>
        <time>2013-03-03T07:03:38Z</time>
      </trkpt>
      <trkpt lat="45.95206" lon="6.75173">
        <ele>1404.0504</ele>
        <time>2013-03-03T07:03:52Z</time>
      </trkpt>
      <trkpt lat="45.95221" lon="6.7519">
        <ele>1403.3688</ele>
        <time>2013-03-03T07:04:07Z</time>
      </trkpt>
      <trkpt lat="45.95235" lon="6.75207">
        <ele>1402.9572</ele>
        <time>2013-03-03T07:04:21Z</time>
      </trkpt>
      <trkpt lat="45.9525" lon="6.75223">
        <ele>1401.8776</ele>
        <time>2013-03-03T07:04:34Z</time>
      </trkpt>
      <trkpt lat="45.95262" lon="6.75244">
        <ele>1404.36</ele>
        <time>2013-03-03T07:04:48Z</time>
      </trkpt>
      <trkpt lat="45.9527" lon="6.75267">
        <ele>1408.4132</ele>
        <time>2013-03-03T07:05:02Z</time>
      </trkpt>
      <trkpt lat="45.95269" lon="6.75295">
        <ele>1412.3749</ele>
        <time>2013-03-03T07:05:16Z</time>
      </trkpt>
      <trkpt lat="45.95261" lon="6.7532">
        <ele>1413.3677</ele>
        <time>2013-03-03T07:05:30Z</time>
      </trkpt>
      <trkpt lat="45.95253" lon="6.75343">
        <ele>1415.5669</ele>
        <time>2013-03-03T07:05:42Z</time>
      </trkpt>
      <trkpt lat="45.95251" lon="6.7537">
        <ele>1416.6787</ele>
        <time>2013-03-03T07:05:54Z</time>
      </trkpt>
      <trkpt lat="45.95251" lon="6.75398">
        <ele>1417.7021</ele>
        <time>2013-03-03T07:06:06Z</time>
      </trkpt>
      <trkpt lat="45.95248" lon="6.75424">
        <ele>1416.2632</ele>
        <time>2013-03-03T07:06:20Z</time>
      </trkpt>
      <trkpt lat="45.95244" lon="6.75451">
        <ele>1414.6583</ele>
        <time>2013-03-03T07:06:33Z</time>
      </trkpt>
      <trkpt lat="45.95241" lon="6.75479">
        <ele>1414.2114</ele>
        <time>2013-03-03T07:06:45Z</time>
      </trkpt>
      <trkpt lat="45.9524" lon="6.75506">
        <ele>1414.1075</ele>
        <time>2013-03-03T07:06:57Z</time>
      </trkpt>
      <trkpt lat="45.95235" lon="6.75533">
        <ele>1413.6693</ele>
        <time>2013-03-03T07:07:09Z</time>
      </trkpt>
      <trkpt lat="45.95228" lon="6.75558">
        <ele>1412.7698</ele>
        <time>2013-03-03T07:07:22Z</time>
      </trkpt>
      <trkpt lat="45.95214" lon="6.75575">
        <ele>1413.032</ele>
        <time>2013-03-03T07:07:36Z</time>
      </trkpt>
      <trkpt lat="45.95206" lon="6.75599">
        <ele>1413.2466</ele>
        <time>2013-03-03T07:07:50Z</time>
      </trkpt>
      <trkpt lat="45.9521" lon="6.75626">
        <ele>1413.8489</ele>
        <time>2013-03-03T07:08:00Z</time>
      </trkpt>
      <trkpt lat="45.95214" lon="6.75652">
        <ele>1414.8928</ele>
        <time>2013-03-03T07:08:12Z</time>
      </trkpt>
      <trkpt lat="45.95215" lon="6.75679">
        <ele>1417.8097</ele>
        <time>2013-03-03T07:08:26Z</time>
      </trkpt>
      <trkpt lat="45.9521" lon="6.75705">
        <ele>1417.8387</ele>
        <time>2013-03-03T07:08:41Z</time>
      </trkpt>
      <trkpt lat="45.95192" lon="6.75712">
        <ele>1418.1812</ele>
        <time>2013-03-03T07:09:01Z</time>
      </trkpt>
      <trkpt lat="45.95181" lon="6.75734">
        <ele>1418.163</ele>
        <time>2013-03-03T07:09:19Z</time>
      </trkpt>
      <trkpt lat="45.95177" lon="6.7576">
        <ele>1417.9202</ele>
        <time>2013-03-03T07:09:35Z</time>
      </trkpt>
      <trkpt lat="45.95166" lon="6.75782">
        <ele>1418.1736</ele>
        <time>2013-03-03T07:09:52Z</time>
      </trkpt>
      <trkpt lat="45.95157" lon="6.75805">
        <ele>1419.2335</ele>
        <time>2013-03-03T07:10:06Z</time>
      </trkpt>
      <trkpt lat="45.95151" lon="6.7583">
        <ele>1419.4185</ele>
        <time>2013-03-03T07:10:20Z</time>
      </trkpt>
      <trkpt lat="45.95143" lon="6.75853">
        <ele>1422.5907</ele>
        <time>2013-03-03T07:10:40Z</time>
      </trkpt>
      <trkpt lat="45.9513" lon="6.75872">
        <ele>1423.6716</ele>
        <time>2013-03-03T07:10:59Z</time>
      </trkpt>
      <trkpt lat="45.95123" lon="6.75896">
        <ele>1423.4985</ele>
        <time>2013-03-03T07:11:16Z</time>
      </trkpt>
      <trkpt lat="45.9511" lon="6.75915">
        <ele>1425.6432</ele>
        <time>2013-03-03T07:11:33Z</time>
      </trkpt>
      <trkpt lat="45.95095" lon="6.75931">
        <ele>1428.1909</ele>
        <time>2013-03-03T07:11:54Z</time>
      </trkpt>
      <trkpt lat="45.95081" lon="6.75949">
        <ele>1429.6454</ele>
        <time>2013-03-03T07:12:13Z</time>
      </trkpt>
      <trkpt lat="45.95075" lon="6.75973">
        <ele>1431.2494</ele>
        <time>2013-03-03T07:12:33Z</time>
      </trkpt>
      <trkpt lat="45.95068" lon="6.75998">
        <ele>1431.113</ele>
        <time>2013-03-03T07:12:56Z</time>
      </trkpt>
      <trkpt lat="45.95063" lon="6.76023">
        <ele>1431.5825</ele>
        <time>2013-03-03T07:13:16Z</time>
      </trkpt>
      <trkpt lat="45.95055" lon="6.76048">
        <ele>1432.4237</ele>
        <time>2013-03-03T07:13:33Z</time>
      </trkpt>
      <trkpt lat="45.95042" lon="6.76066">
        <ele>1433.6609</ele>
        <time>2013-03-03T07:13:50Z</time>
      </trkpt>
      <trkpt lat="45.95039" lon="6.76093">
        <ele>1435.6367</ele>
        <time>2013-03-03T07:14:06Z</time>
      </trkpt>
      <trkpt lat="45.95038" lon="6.76119">
        <ele>1441.1726</ele>
        <time>2013-03-03T07:14:25Z</time>
      </trkpt>
      <trkpt lat="45.95044" lon="6.76144">
        <ele>1441.9064</ele>
        <time>2013-03-03T07:14:43Z</time>
      </trkpt>
      <trkpt lat="45.95053" lon="6.76168">
        <ele>1443.6895</ele>
        <time>2013-03-03T07:15:00Z</time>
      </trkpt>
      <trkpt lat="45.95064" lon="6.76189">
        <ele>1444.1741</ele>
        <time>2013-03-03T07:15:17Z</time>
      </trkpt>
      <trkpt lat="45.95077" lon="6.76208">
        <ele>1444.299</ele>
        <time>2013-03-03T07:15:35Z</time>
      </trkpt>
      <trkpt lat="45.95083" lon="6.76234">
        <ele>1446.1239</ele>
        <time>2013-03-03T07:16:11Z</time>
      </trkpt>
      <trkpt lat="45.95092" lon="6.76259">
        <ele>1445.2319</ele>
        <time>2013-03-03T07:16:24Z</time>
      </trkpt>
      <trkpt lat="45.95098" lon="6.76284">
        <ele>1445.732</ele>
        <time>2013-03-03T07:16:33Z</time>
      </trkpt>
      <trkpt lat="45.95103" lon="6.7631">
        <ele>1448.5457</ele>
        <time>2013-03-03T07:16:43Z</time>
      </trkpt>
      <trkpt lat="45.95113" lon="6.76333">
        <ele>1453.758</ele>
        <time>2013-03-03T07:16:56Z</time>
      </trkpt>
      <trkpt lat="45.95126" lon="6.76351">
        <ele>1459.7765</ele>
        <time>2013-03-03T07:17:12Z</time>
      </trkpt>
      <trkpt lat="45.95133" lon="6.76376">
        <ele>1469.5466</ele>
        <time>2013-03-03T07:17:25Z</time>
      </trkpt>
      <trkpt lat="45.95141" lon="6.76401">
        <ele>1470.6028</ele>
        <time>2013-03-03T07:17:40Z</time>
      </trkpt>
      <trkpt lat="45.95147" lon="6.76426">
        <ele>1470.9713</ele>
        <time>2013-03-03T07:17:53Z</time>
      </trkpt>
      <trkpt lat="45.95156" lon="6.76449">
        <ele>1471.5087</ele>
        <time>2013-03-03T07:18:06Z</time>
      </trkpt>
      <trkpt lat="45.95165" lon="6.76473">
        <ele>1471.6843</ele>
        <time>2013-03-03T07:18:20Z</time>
      </trkpt>
      <trkpt lat="45.95178" lon="6.76493">
        <ele>1472.8665</ele>
        <time>2013-03-03T07:18:37Z</time>
      </trkpt>
      <trkpt lat="45.95189" lon="6.76513">
        <ele>1472.3848</ele>
        <time>2013-03-03T07:18:57Z</time>
      </trkpt>
      <trkpt lat="45.952" lon="6.76534">
        <ele>1471.8875</ele>
        <time>2013-03-03T07:19:14Z</time>
      </trkpt>
      <trkpt lat="45.95208" lon="6.7656">
        <ele>1471.2979</ele>
        <time>2013-03-03T07:19:28Z</time>
      </trkpt>
      <trkpt lat="45.95218" lon="6.76584">
        <ele>1475.7029</ele>
        <time>2013-03-03T07:22:32Z</time>
      </trkpt>
      <trkpt lat="45.95258" lon="6.76635">
        <ele>1468.15</ele>
        <time>2013-03-03T07:23:09Z</time>
      </trkpt>
      <trkpt lat="45.9527" lon="6.76658">
        <ele>1464.7925</ele>
        <time>2013-03-03T07:23:19Z</time>
      </trkpt>
      <trkpt lat="45.95278" lon="6.76681">
        <ele>1463.7808</ele>
        <time>2013-03-03T07:23:28Z</time>
      </trkpt>
      <trkpt lat="45.95292" lon="6.76702">
        <ele>1464.5824</ele>
        <time>2013-03-03T07:23:37Z</time>
      </trkpt>
      <trkpt lat="45.95309" lon="6.76711">
        <ele>1465.8387</ele>
        <time>2013-03-03T07:23:45Z</time>
      </trkpt>
      <trkpt lat="45.95324" lon="6.76728">
        <ele>1467.1097</ele>
        <time>2013-03-03T07:23:58Z</time>
      </trkpt>
      <trkpt lat="45.95329" lon="6.76753">
        <ele>1469.332</ele>
        <time>2013-03-03T07:24:09Z</time>
      </trkpt>
      <trkpt lat="45.95334" lon="6.76778">
        <ele>1470.8073</ele>
        <time>2013-03-03T07:24:21Z</time>
      </trkpt>
      <trkpt lat="45.95348" lon="6.76797">
        <ele>1473.681</ele>
        <time>2013-03-03T07:24:34Z</time>
      </trkpt>
      <trkpt lat="45.95356" lon="6.76821">
        <ele>1475.3713</ele>
        <time>2013-03-03T07:24:55Z</time>
      </trkpt>
      <trkpt lat="45.95357" lon="6.76848">
        <ele>1473.8914</ele>
        <time>2013-03-03T07:25:11Z</time>
      </trkpt>
      <trkpt lat="45.95365" lon="6.76872">
        <ele>1476.3135</ele>
        <time>2013-03-03T07:25:30Z</time>
      </trkpt>
      <trkpt lat="45.95368" lon="6.76898">
        <ele>1478.5938</ele>
        <time>2013-03-03T07:25:45Z</time>
      </trkpt>
      <trkpt lat="45.95376" lon="6.76922">
        <ele>1476.5042</ele>
        <time>2013-03-03T07:26:03Z</time>
      </trkpt>
      <trkpt lat="45.95381" lon="6.76948">
        <ele>1475.813</ele>
        <time>2013-03-03T07:26:16Z</time>
      </trkpt>
      <trkpt lat="45.9539" lon="6.76972">
        <ele>1477.7925</ele>
        <time>2013-03-03T07:26:29Z</time>
      </trkpt>
      <trkpt lat="45.95399" lon="6.76995">
        <ele>1477.8374</ele>
        <time>2013-03-03T07:26:46Z</time>
      </trkpt>
      <trkpt lat="45.95412" lon="6.77014">
        <ele>1476.7268</ele>
        <time>2013-03-03T07:27:06Z</time>
      </trkpt>
      <trkpt lat="45.9543" lon="6.77017">
        <ele>1478.2494</ele>
        <time>2013-03-03T07:27:24Z</time>
      </trkpt>
      <trkpt lat="45.95448" lon="6.7702">
        <ele>1482.339</ele>
        <time>2013-03-03T07:27:40Z</time>
      </trkpt>
      <trkpt lat="45.95467" lon="6.77021">
        <ele>1486.1797</ele>
        <time>2013-03-03T07:27:57Z</time>
      </trkpt>
      <trkpt lat="45.95485" lon="6.77023">
        <ele>1487.8306</ele>
        <time>2013-03-03T07:28:18Z</time>
      </trkpt>
      <trkpt lat="45.95503" lon="6.77028">
        <ele>1491.0618</ele>
        <time>2013-03-03T07:28:39Z</time>
      </trkpt>
      <trkpt lat="45.9552" lon="6.77041">
        <ele>1493.6981</ele>
        <time>2013-03-03T07:28:57Z</time>
      </trkpt>
      <trkpt lat="45.95527" lon="6.77066">
        <ele>1497.601</ele>
        <time>2013-03-03T07:29:14Z</time>
      </trkpt>
      <trkpt lat="45.95538" lon="6.77087">
        <ele>1502.849</ele>
        <time>2013-03-03T07:29:31Z</time>
      </trkpt>
      <trkpt lat="45.95545" lon="6.77111">
        <ele>1506.0558</ele>
        <time>2013-03-03T07:29:51Z</time>
      </trkpt>
      <trkpt lat="45.95562" lon="6.77123">
        <ele>1509.5177</ele>
        <time>2013-03-03T07:30:14Z</time>
      </trkpt>
      <trkpt lat="45.95575" lon="6.77141">
        <ele>1511.8779</ele>
        <time>2013-03-03T07:30:33Z</time>
      </trkpt>
      <trkpt lat="45.9559" lon="6.77156">
        <ele>1517.9534</ele>
        <time>2013-03-03T07:30:56Z</time>
      </trkpt>
      <trkpt lat="45.956" lon="6.77179">
        <ele>1524.9045</ele>
        <time>2013-03-03T07:31:21Z</time>
      </trkpt>
      <trkpt lat="45.95607" lon="6.77203">
        <ele>1526.9502</ele>
        <time>2013-03-03T07:31:43Z</time>
      </trkpt>
      <trkpt lat="45.95615" lon="6.77227">
        <ele>1528.9868</ele>
        <time>2013-03-03T07:32:02Z</time>
      </trkpt>
      <trkpt lat="45.95616" lon="6.77253">
        <ele>1531.5336</ele>
        <time>2013-03-03T07:32:17Z</time>
      </trkpt>
      <trkpt lat="45.95623" lon="6.7728">
        <ele>1528.9841</ele>
        <time>2013-03-03T07:32:28Z</time>
      </trkpt>
      <trkpt lat="45.95628" lon="6.77305">
        <ele>1529.743</ele>
        <time>2013-03-03T07:32:45Z</time>
      </trkpt>
      <trkpt lat="45.95635" lon="6.77329">
        <ele>1530.8027</ele>
        <time>2013-03-03T07:33:07Z</time>
      </trkpt>
      <trkpt lat="45.95641" lon="6.77354">
        <ele>1532.0077</ele>
        <time>2013-03-03T07:33:25Z</time>
      </trkpt>
      <trkpt lat="45.95643" lon="6.77381">
        <ele>1533.4277</ele>
        <time>2013-03-03T07:33:45Z</time>
      </trkpt>
      <trkpt lat="45.95652" lon="6.77403">
        <ele>1535.485</ele>
        <time>2013-03-03T07:34:06Z</time>
      </trkpt>
      <trkpt lat="45.9567" lon="6.77411">
        <ele>1539.7878</ele>
        <time>2013-03-03T07:34:25Z</time>
      </trkpt>
      <trkpt lat="45.95687" lon="6.7742">
        <ele>1544.5864</ele>
        <time>2013-03-03T07:34:44Z</time>
      </trkpt>
      <trkpt lat="45.95705" lon="6.77426">
        <ele>1549.4033</ele>
        <time>2013-03-03T07:35:09Z</time>
      </trkpt>
      <trkpt lat="45.95723" lon="6.77419">
        <ele>1551.3291</ele>
        <time>2013-03-03T07:35:26Z</time>
      </trkpt>
      <trkpt lat="45.9574" lon="6.7743">
        <ele>1553.8223</ele>
        <time>2013-03-03T07:35:48Z</time>
      </trkpt>
      <trkpt lat="45.95756" lon="6.77443">
        <ele>1559.8296</ele>
        <time>2013-03-03T07:36:19Z</time>
      </trkpt>
      <trkpt lat="45.95769" lon="6.77462">
        <ele>1565.1953</ele>
        <time>2013-03-03T07:36:38Z</time>
      </trkpt>
      <trkpt lat="45.95778" lon="6.77486">
        <ele>1567.2683</ele>
        <time>2013-03-03T07:36:58Z</time>
      </trkpt>
      <trkpt lat="45.95788" lon="6.77508">
        <ele>1569.7319</ele>
        <time>2013-03-03T07:37:17Z</time>
      </trkpt>
      <trkpt lat="45.95791" lon="6.77534">
        <ele>1570.9634</ele>
        <time>2013-03-03T07:37:37Z</time>
      </trkpt>
      <trkpt lat="45.95788" lon="6.77559">
        <ele>1571.6825</ele>
        <time>2013-03-03T07:37:54Z</time>
      </trkpt>
      <trkpt lat="45.95787" lon="6.77587">
        <ele>1571.5802</ele>
        <time>2013-03-03T07:38:10Z</time>
      </trkpt>
      <trkpt lat="45.95782" lon="6.77613">
        <ele>1571.2682</ele>
        <time>2013-03-03T07:38:25Z</time>
      </trkpt>
      <trkpt lat="45.95783" lon="6.7764">
        <ele>1570.5065</ele>
        <time>2013-03-03T07:38:43Z</time>
      </trkpt>
      <trkpt lat="45.95798" lon="6.77656">
        <ele>1568.9702</ele>
        <time>2013-03-03T07:39:01Z</time>
      </trkpt>
      <trkpt lat="45.95804" lon="6.77681">
        <ele>1573.6967</ele>
        <time>2013-03-03T07:39:25Z</time>
      </trkpt>
      <trkpt lat="45.95814" lon="6.77702">
        <ele>1576.4147</ele>
        <time>2013-03-03T07:39:47Z</time>
      </trkpt>
      <trkpt lat="45.95831" lon="6.77692">
        <ele>1581.2773</ele>
        <time>2013-03-03T07:40:07Z</time>
      </trkpt>
      <trkpt lat="45.95846" lon="6.77677">
        <ele>1584.9662</ele>
        <time>2013-03-03T07:40:27Z</time>
      </trkpt>
      <trkpt lat="45.95861" lon="6.77691">
        <ele>1591.3232</ele>
        <time>2013-03-03T07:41:02Z</time>
      </trkpt>
      <trkpt lat="45.95858" lon="6.77717">
        <ele>1595.757</ele>
        <time>2013-03-03T07:41:19Z</time>
      </trkpt>
      <trkpt lat="45.95859" lon="6.77743">
        <ele>1598.0084</ele>
        <time>2013-03-03T07:41:37Z</time>
      </trkpt>
      <trkpt lat="45.95861" lon="6.7777">
        <ele>1600.437</ele>
        <time>2013-03-03T07:41:57Z</time>
      </trkpt>
      <trkpt lat="45.95873" lon="6.7779">
        <ele>1602.2825</ele>
        <time>2013-03-03T07:42:17Z</time>
      </trkpt>
      <trkpt lat="45.95887" lon="6.77807">
        <ele>1606.8796</ele>
        <time>2013-03-03T07:42:37Z</time>
      </trkpt>
      <trkpt lat="45.95891" lon="6.77833">
        <ele>1612.5217</ele>
        <time>2013-03-03T07:43:02Z</time>
      </trkpt>
      <trkpt lat="45.95891" lon="6.77859">
        <ele>1614.2603</ele>
        <time>2013-03-03T07:43:24Z</time>
      </trkpt>
      <trkpt lat="45.95907" lon="6.77871">
        <ele>1614.7605</ele>
        <time>2013-03-03T07:43:46Z</time>
      </trkpt>
      <trkpt lat="45.95925" lon="6.77875">
        <ele>1617.3152</ele>
        <time>2013-03-03T07:44:04Z</time>
      </trkpt>
      <trkpt lat="45.95943" lon="6.77878">
        <ele>1618.5951</ele>
        <time>2013-03-03T07:44:21Z</time>
      </trkpt>
      <trkpt lat="45.95961" lon="6.77884">
        <ele>1620.0004</ele>
        <time>2013-03-03T07:44:38Z</time>
      </trkpt>
      <trkpt lat="45.95979" lon="6.77878">
        <ele>1621.8062</ele>
        <time>2013-03-03T07:44:57Z</time>
      </trkpt>
      <trkpt lat="45.95992" lon="6.7786">
        <ele>1623.4706</ele>
        <time>2013-03-03T07:45:13Z</time>
      </trkpt>
      <trkpt lat="45.96006" lon="6.77842">
        <ele>1623.4209</ele>
        <time>2013-03-03T07:45:32Z</time>
      </trkpt>
      <trkpt lat="45.96023" lon="6.77833">
        <ele>1624.6844</ele>
        <time>2013-03-03T07:45:55Z</time>
      </trkpt>
      <trkpt lat="45.96041" lon="6.77826">
        <ele>1628.5339</ele>
        <time>2013-03-03T07:46:28Z</time>
      </trkpt>
      <trkpt lat="45.96044" lon="6.77801">
        <ele>1629.4702</ele>
        <time>2013-03-03T07:46:51Z</time>
      </trkpt>
      <trkpt lat="45.96044" lon="6.77775">
        <ele>1633.1809</ele>
        <time>2013-03-03T07:47:16Z</time>
      </trkpt>
      <trkpt lat="45.9603" lon="6.77758">
        <ele>1652.4431</ele>
        <time>2013-03-03T07:47:35Z</time>
      </trkpt>
      <trkpt lat="45.96048" lon="6.77764">
        <ele>1655.0697</ele>
        <time>2013-03-03T07:48:19Z</time>
      </trkpt>
      <trkpt lat="45.96061" lon="6.77782">
        <ele>1657.4138</ele>
        <time>2013-03-03T07:48:43Z</time>
      </trkpt>
      <trkpt lat="45.96075" lon="6.77799">
        <ele>1661.0284</ele>
        <time>2013-03-03T07:49:08Z</time>
      </trkpt>
      <trkpt lat="45.96091" lon="6.77811">
        <ele>1666.2483</ele>
        <time>2013-03-03T07:49:35Z</time>
      </trkpt>
      <trkpt lat="45.9611" lon="6.77815">
        <ele>1670.352</ele>
        <time>2013-03-03T07:50:06Z</time>
      </trkpt>
      <trkpt lat="45.96127" lon="6.77823">
        <ele>1684.8102</ele>
        <time>2013-03-03T07:51:12Z</time>
      </trkpt>
      <trkpt lat="45.96145" lon="6.77819">
        <ele>1691.6233</ele>
        <time>2013-03-03T07:52:38Z</time>
      </trkpt>
      <trkpt lat="45.96163" lon="6.77815">
        <ele>1694.0138</ele>
        <time>2013-03-03T07:53:00Z</time>
      </trkpt>
      <trkpt lat="45.96181" lon="6.77816">
        <ele>1696.1343</ele>
        <time>2013-03-03T07:53:21Z</time>
      </trkpt>
      <trkpt lat="45.96199" lon="6.77819">
        <ele>1699.108</ele>
        <time>2013-03-03T07:53:51Z</time>
      </trkpt>
      <trkpt lat="45.96217" lon="6.77815">
        <ele>1698.9618</ele>
        <time>2013-03-03T07:54:15Z</time>
      </trkpt>
      <trkpt lat="45.96235" lon="6.77818">
        <ele>1701.6152</ele>
        <time>2013-03-03T07:54:42Z</time>
      </trkpt>
      <trkpt lat="45.96253" lon="6.77822">
        <ele>1703.9169</ele>
        <time>2013-03-03T07:55:07Z</time>
      </trkpt>
      <trkpt lat="45.9627" lon="6.77832">
        <ele>1708.9047</ele>
        <time>2013-03-03T07:55:31Z</time>
      </trkpt>
      <trkpt lat="45.96274" lon="6.77858">
        <ele>1713.9993</ele>
        <time>2013-03-03T07:56:04Z</time>
      </trkpt>
      <trkpt lat="45.96268" lon="6.77882">
        <ele>1718.2173</ele>
        <time>2013-03-03T07:56:31Z</time>
      </trkpt>
      <trkpt lat="45.96269" lon="6.77908">
        <ele>1722.7332</ele>
        <time>2013-03-03T07:56:57Z</time>
      </trkpt>
      <trkpt lat="45.96282" lon="6.77926">
        <ele>1727.165</ele>
        <time>2013-03-03T07:57:23Z</time>
      </trkpt>
      <trkpt lat="45.96294" lon="6.77946">
        <ele>1731.0839</ele>
        <time>2013-03-03T07:57:49Z</time>
      </trkpt>
      <trkpt lat="45.96297" lon="6.77972">
        <ele>1738.0543</ele>
        <time>2013-03-03T07:58:16Z</time>
      </trkpt>
      <trkpt lat="45.96309" lon="6.77992">
        <ele>1744.6387</ele>
        <time>2013-03-03T07:59:37Z</time>
      </trkpt>
      <trkpt lat="45.96322" lon="6.78011">
        <ele>1748.103</ele>
        <time>2013-03-03T08:00:05Z</time>
      </trkpt>
      <trkpt lat="45.96326" lon="6.78037">
        <ele>1754.1266</ele>
        <time>2013-03-03T08:00:33Z</time>
      </trkpt>
      <trkpt lat="45.96341" lon="6.78053">
        <ele>1759.213</ele>
        <time>2013-03-03T08:01:00Z</time>
      </trkpt>
      <trkpt lat="45.96354" lon="6.78072">
        <ele>1764.2799</ele>
        <time>2013-03-03T08:01:29Z</time>
      </trkpt>
      <trkpt lat="45.96354" lon="6.78099">
        <ele>1772.1226</ele>
        <time>2013-03-03T08:01:59Z</time>
      </trkpt>
      <trkpt lat="45.96354" lon="6.78126">
        <ele>1776.1565</ele>
        <time>2013-03-03T08:02:26Z</time>
      </trkpt>
      <trkpt lat="45.96366" lon="6.78144">
        <ele>1784.5627</ele>
        <time>2013-03-03T08:03:00Z</time>
      </trkpt>
      <trkpt lat="45.96381" lon="6.78159">
        <ele>1787.02</ele>
        <time>2013-03-03T08:03:28Z</time>
      </trkpt>
      <trkpt lat="45.96394" lon="6.78178">
        <ele>1787.8306</ele>
        <time>2013-03-03T08:03:54Z</time>
      </trkpt>
      <trkpt lat="45.96405" lon="6.782">
        <ele>1791.8469</ele>
        <time>2013-03-03T08:04:23Z</time>
      </trkpt>
      <trkpt lat="45.96414" lon="6.78222">
        <ele>1797.4868</ele>
        <time>2013-03-03T08:04:50Z</time>
      </trkpt>
      <trkpt lat="45.96423" lon="6.78245">
        <ele>1802.9226</ele>
        <time>2013-03-03T08:05:17Z</time>
      </trkpt>
      <trkpt lat="45.96427" lon="6.7827">
        <ele>1822.8813</ele>
        <time>2013-03-03T08:07:18Z</time>
      </trkpt>
      <trkpt lat="45.96445" lon="6.7826">
        <ele>1834.482</ele>
        <time>2013-03-03T08:08:10Z</time>
      </trkpt>
      <trkpt lat="45.9646" lon="6.78275">
        <ele>1841.2985</ele>
        <time>2013-03-03T08:09:15Z</time>
      </trkpt>
      <trkpt lat="45.9646" lon="6.78301">
        <ele>1842.4034</ele>
        <time>2013-03-03T08:09:58Z</time>
      </trkpt>
      <trkpt lat="45.96478" lon="6.78307">
        <ele>1870.3234</ele>
        <time>2013-03-03T08:22:26Z</time>
      </trkpt>
      <trkpt lat="45.96494" lon="6.78291">
        <ele>1886.5692</ele>
        <time>2013-03-03T08:32:37Z</time>
      </trkpt>
      <trkpt lat="45.96491" lon="6.78318">
        <ele>1893.939</ele>
        <time>2013-03-03T08:33:06Z</time>
      </trkpt>
      <trkpt lat="45.96509" lon="6.78311">
        <ele>1901.3837</ele>
        <time>2013-03-03T08:33:55Z</time>
      </trkpt>
      <trkpt lat="45.96525" lon="6.783">
        <ele>1904.6549</ele>
        <time>2013-03-03T08:34:23Z</time>
      </trkpt>
      <trkpt lat="45.96538" lon="6.78281">
        <ele>1910.1101</ele>
        <time>2013-03-03T08:34:55Z</time>
      </trkpt>
      <trkpt lat="45.96548" lon="6.78259">
        <ele>1914.6786</ele>
        <time>2013-03-03T08:35:37Z</time>
      </trkpt>
      <trkpt lat="45.96563" lon="6.78243">
        <ele>1921.342</ele>
        <time>2013-03-03T08:36:09Z</time>
      </trkpt>
      <trkpt lat="45.96581" lon="6.78243">
        <ele>1923.6552</ele>
        <time>2013-03-03T08:39:50Z</time>
      </trkpt>
      <trkpt lat="45.96599" lon="6.78241">
        <ele>1926.7441</ele>
        <time>2013-03-03T08:41:06Z</time>
      </trkpt>
      <trkpt lat="45.96616" lon="6.78251">
        <ele>1936.5701</ele>
        <time>2013-03-03T08:41:38Z</time>
      </trkpt>
      <trkpt lat="45.96631" lon="6.78266">
        <ele>1943.8469</ele>
        <time>2013-03-03T08:42:03Z</time>
      </trkpt>
      <trkpt lat="45.96643" lon="6.78287">
        <ele>1951.4211</ele>
        <time>2013-03-03T08:42:28Z</time>
      </trkpt>
      <trkpt lat="45.96648" lon="6.78313">
        <ele>1955.1282</ele>
        <time>2013-03-03T08:42:50Z</time>
      </trkpt>
      <trkpt lat="45.96654" lon="6.78338">
        <ele>1958.8379</ele>
        <time>2013-03-03T08:43:10Z</time>
      </trkpt>
      <trkpt lat="45.96661" lon="6.78362">
        <ele>1957.965</ele>
        <time>2013-03-03T08:43:30Z</time>
      </trkpt>
      <trkpt lat="45.96663" lon="6.78388">
        <ele>1961.3021</ele>
        <time>2013-03-03T08:43:54Z</time>
      </trkpt>
      <trkpt lat="45.96669" lon="6.78412">
        <ele>1968.0841</ele>
        <time>2013-03-03T08:44:22Z</time>
      </trkpt>
      <trkpt lat="45.96679" lon="6.78434">
        <ele>1971.7219</ele>
        <time>2013-03-03T08:44:46Z</time>
      </trkpt>
      <trkpt lat="45.96692" lon="6.78452">
        <ele>1975.4243</ele>
        <time>2013-03-03T08:45:12Z</time>
      </trkpt>
      <trkpt lat="45.96708" lon="6.78464">
        <ele>1979.2837</ele>
        <time>2013-03-03T08:45:33Z</time>
      </trkpt>
      <trkpt lat="45.96727" lon="6.78462">
        <ele>1982.5361</ele>
        <time>2013-03-03T08:45:56Z</time>
      </trkpt>
      <trkpt lat="45.96745" lon="6.78468">
        <ele>1983.9991</ele>
        <time>2013-03-03T08:46:15Z</time>
      </trkpt>
      <trkpt lat="45.96759" lon="6.78487">
        <ele>1988.183</ele>
        <time>2013-03-03T08:46:40Z</time>
      </trkpt>
      <trkpt lat="45.96766" lon="6.78511">
        <ele>1992.8397</ele>
        <time>2013-03-03T08:47:00Z</time>
      </trkpt>
      <trkpt lat="45.96776" lon="6.78533">
        <ele>1994.4105</ele>
        <time>2013-03-03T08:47:19Z</time>
      </trkpt>
      <trkpt lat="45.96791" lon="6.7852">
        <ele>1993.898</ele>
        <time>2013-03-03T08:47:48Z</time>
      </trkpt>
      <trkpt lat="45.96803" lon="6.78499">
        <ele>1995.3262</ele>
        <time>2013-03-03T08:48:14Z</time>
      </trkpt>
      <trkpt lat="45.96821" lon="6.78499">
        <ele>2008.424</ele>
        <time>2013-03-03T08:48:53Z</time>
      </trkpt>
      <trkpt lat="45.96834" lon="6.78518">
        <ele>2019.7391</ele>
        <time>2013-03-03T08:49:32Z</time>
      </trkpt>
      <trkpt lat="45.96846" lon="6.7854">
        <ele>2024.1895</ele>
        <time>2013-03-03T08:49:53Z</time>
      </trkpt>
      <trkpt lat="45.96853" lon="6.78564">
        <ele>2022.2662</ele>
        <time>2013-03-03T08:50:12Z</time>
      </trkpt>
      <trkpt lat="45.96858" lon="6.78588">
        <ele>2020.6549</ele>
        <time>2013-03-03T08:50:32Z</time>
      </trkpt>
      <trkpt lat="45.96873" lon="6.78603">
        <ele>2020.4913</ele>
        <time>2013-03-03T08:50:55Z</time>
      </trkpt>
      <trkpt lat="45.96889" lon="6.78615">
        <ele>2023.4495</ele>
        <time>2013-03-03T08:51:25Z</time>
      </trkpt>
      <trkpt lat="45.96905" lon="6.78627">
        <ele>2025.5819</ele>
        <time>2013-03-03T08:51:46Z</time>
      </trkpt>
      <trkpt lat="45.9692" lon="6.78644">
        <ele>2029.7417</ele>
        <time>2013-03-03T08:52:10Z</time>
      </trkpt>
      <trkpt lat="45.96934" lon="6.7866">
        <ele>2033.3518</ele>
        <time>2013-03-03T08:52:33Z</time>
      </trkpt>
      <trkpt lat="45.9695" lon="6.78672">
        <ele>2034.2488</ele>
        <time>2013-03-03T08:52:59Z</time>
      </trkpt>
      <trkpt lat="45.96967" lon="6.78682">
        <ele>2034.3373</ele>
        <time>2013-03-03T08:53:19Z</time>
      </trkpt>
      <trkpt lat="45.9698" lon="6.787">
        <ele>2036.0237</ele>
        <time>2013-03-03T08:53:39Z</time>
      </trkpt>
      <trkpt lat="45.96993" lon="6.7872">
        <ele>2036.5724</ele>
        <time>2013-03-03T08:53:57Z</time>
      </trkpt>
      <trkpt lat="45.97003" lon="6.7874">
        <ele>2037.5692</ele>
        <time>2013-03-03T08:54:14Z</time>
      </trkpt>
      <trkpt lat="45.97016" lon="6.7876">
        <ele>2039.7408</ele>
        <time>2013-03-03T08:54:37Z</time>
      </trkpt>
      <trkpt lat="45.97029" lon="6.78777">
        <ele>2043.6282</ele>
        <time>2013-03-03T08:55:02Z</time>
      </trkpt>
      <trkpt lat="45.97044" lon="6.78794">
        <ele>2044.4148</ele>
        <time>2013-03-03T08:55:22Z</time>
      </trkpt>
      <trkpt lat="45.97056" lon="6.78814">
        <ele>2046.3156</ele>
        <time>2013-03-03T08:55:42Z</time>
      </trkpt>
      <trkpt lat="45.97066" lon="6.78837">
        <ele>2047.7439</ele>
        <time>2013-03-03T08:56:02Z</time>
      </trkpt>
      <trkpt lat="45.97073" lon="6.78861">
        <ele>2050.1113</ele>
        <time>2013-03-03T08:56:22Z</time>
      </trkpt>
      <trkpt lat="45.97086" lon="6.7888">
        <ele>2052.0845</ele>
        <time>2013-03-03T08:56:44Z</time>
      </trkpt>
      <trkpt lat="45.97104" lon="6.78878">
        <ele>2054.3318</ele>
        <time>2013-03-03T08:59:00Z</time>
      </trkpt>
      <trkpt lat="45.97123" lon="6.78875">
        <ele>2061.224</ele>
        <time>2013-03-03T08:59:25Z</time>
      </trkpt>
      <trkpt lat="45.97141" lon="6.78871">
        <ele>2062.5735</ele>
        <time>2013-03-03T08:59:49Z</time>
      </trkpt>
      <trkpt lat="45.97159" lon="6.78876">
        <ele>2067.1924</ele>
        <time>2013-03-03T09:00:12Z</time>
      </trkpt>
      <trkpt lat="45.97177" lon="6.78883">
        <ele>2075.8188</ele>
        <time>2013-03-03T09:00:49Z</time>
      </trkpt>
      <trkpt lat="45.97195" lon="6.7889">
        <ele>2081.7444</ele>
        <time>2013-03-03T09:01:13Z</time>
      </trkpt>
      <trkpt lat="45.97213" lon="6.78895">
        <ele>2087.4912</ele>
        <time>2013-03-03T09:01:38Z</time>
      </trkpt>
      <trkpt lat="45.97231" lon="6.78892">
        <ele>2090.9841</ele>
        <time>2013-03-03T09:02:07Z</time>
      </trkpt>
      <trkpt lat="45.97249" lon="6.78896">
        <ele>2096.0452</ele>
        <time>2013-03-03T09:02:32Z</time>
      </trkpt>
      <trkpt lat="45.97267" lon="6.78888">
        <ele>2100.5278</ele>
        <time>2013-03-03T09:02:55Z</time>
      </trkpt>
      <trkpt lat="45.97285" lon="6.78884">
        <ele>2102.5386</ele>
        <time>2013-03-03T09:03:17Z</time>
      </trkpt>
      <trkpt lat="45.97303" lon="6.78885">
        <ele>2108.358</ele>
        <time>2013-03-03T09:03:41Z</time>
      </trkpt>
      <trkpt lat="45.97322" lon="6.78883">
        <ele>2114.9517</ele>
        <time>2013-03-03T09:04:05Z</time>
      </trkpt>
      <trkpt lat="45.9734" lon="6.78879">
        <ele>2116.9238</ele>
        <time>2013-03-03T09:04:26Z</time>
      </trkpt>
      <trkpt lat="45.97358" lon="6.78886">
        <ele>2123.618</ele>
        <time>2013-03-03T09:05:15Z</time>
      </trkpt>
      <trkpt lat="45.97375" lon="6.78895">
        <ele>2133.862</ele>
        <time>2013-03-03T09:05:43Z</time>
      </trkpt>
      <trkpt lat="45.97393" lon="6.78902">
        <ele>2142.241</ele>
        <time>2013-03-03T09:06:10Z</time>
      </trkpt>
      <trkpt lat="45.97411" lon="6.78901">
        <ele>2141.8926</ele>
        <time>2013-03-03T09:06:34Z</time>
      </trkpt>
      <trkpt lat="45.97429" lon="6.78909">
        <ele>2146.282</ele>
        <time>2013-03-03T09:07:00Z</time>
      </trkpt>
      <trkpt lat="45.97447" lon="6.78914">
        <ele>2152.0388</ele>
        <time>2013-03-03T09:07:25Z</time>
      </trkpt>
      <trkpt lat="45.97445" lon="6.78888">
        <ele>2162.0483</ele>
        <time>2013-03-03T09:08:08Z</time>
      </trkpt>
      <trkpt lat="45.97441" lon="6.78862">
        <ele>2171.747</ele>
        <time>2013-03-03T09:08:38Z</time>
      </trkpt>
      <trkpt lat="45.97436" lon="6.78836">
        <ele>2178.5208</ele>
        <time>2013-03-03T09:09:04Z</time>
      </trkpt>
      <trkpt lat="45.97454" lon="6.78838">
        <ele>2182.0776</ele>
        <time>2013-03-03T09:09:29Z</time>
      </trkpt>
      <trkpt lat="45.97472" lon="6.78845">
        <ele>2185.9297</ele>
        <time>2013-03-03T09:09:55Z</time>
      </trkpt>
      <trkpt lat="45.97487" lon="6.7886">
        <ele>2192.31</ele>
        <time>2013-03-03T09:10:20Z</time>
      </trkpt>
      <trkpt lat="45.97499" lon="6.78841">
        <ele>2196.1296</ele>
        <time>2013-03-03T09:11:09Z</time>
      </trkpt>
      <trkpt lat="45.97499" lon="6.78815">
        <ele>2204.7336</ele>
        <time>2013-03-03T09:11:45Z</time>
      </trkpt>
      <trkpt lat="45.97512" lon="6.78795">
        <ele>2212.1157</ele>
        <time>2013-03-03T09:12:22Z</time>
      </trkpt>
      <trkpt lat="45.97527" lon="6.78811">
        <ele>2219.5781</ele>
        <time>2013-03-03T09:12:48Z</time>
      </trkpt>
      <trkpt lat="45.9754" lon="6.78792">
        <ele>2232.6545</ele>
        <time>2013-03-03T09:13:56Z</time>
      </trkpt>
      <trkpt lat="45.9754" lon="6.78766">
        <ele>2233.3843</ele>
        <time>2013-03-03T09:14:29Z</time>
      </trkpt>
      <trkpt lat="45.97557" lon="6.78774">
        <ele>2254.3577</ele>
        <time>2013-03-03T09:17:07Z</time>
      </trkpt>
      <trkpt lat="45.97567" lon="6.78796">
        <ele>2257.927</ele>
        <time>2013-03-03T09:17:28Z</time>
      </trkpt>
      <trkpt lat="45.97581" lon="6.78813">
        <ele>2260.2642</ele>
        <time>2013-03-03T09:17:51Z</time>
      </trkpt>
      <trkpt lat="45.97592" lon="6.78835">
        <ele>2263.493</ele>
        <time>2013-03-03T09:18:16Z</time>
      </trkpt>
      <trkpt lat="45.97601" lon="6.78858">
        <ele>2267.4673</ele>
        <time>2013-03-03T09:18:40Z</time>
      </trkpt>
      <trkpt lat="45.97615" lon="6.78875">
        <ele>2271.7156</ele>
        <time>2013-03-03T09:19:03Z</time>
      </trkpt>
      <trkpt lat="45.9763" lon="6.7886">
        <ele>2281.4688</ele>
        <time>2013-03-03T09:20:13Z</time>
      </trkpt>
      <trkpt lat="45.97632" lon="6.78834">
        <ele>2292.581</ele>
        <time>2013-03-03T09:21:20Z</time>
      </trkpt>
      <trkpt lat="45.97648" lon="6.78845">
        <ele>2297.309</ele>
        <time>2013-03-03T09:21:52Z</time>
      </trkpt>
      <trkpt lat="45.97657" lon="6.78822">
        <ele>2300.2417</ele>
        <time>2013-03-03T09:22:42Z</time>
      </trkpt>
      <trkpt lat="45.9766" lon="6.78796">
        <ele>2302.611</ele>
        <time>2013-03-03T09:23:09Z</time>
      </trkpt>
      <trkpt lat="45.97663" lon="6.78769">
        <ele>2306.8801</ele>
        <time>2013-03-03T09:23:37Z</time>
      </trkpt>
      <trkpt lat="45.97672" lon="6.78792">
        <ele>2327.067</ele>
        <time>2013-03-03T09:24:08Z</time>
      </trkpt>
      <trkpt lat="45.97686" lon="6.78811">
        <ele>2334.2488</ele>
        <time>2013-03-03T09:24:37Z</time>
      </trkpt>
      <trkpt lat="45.97704" lon="6.78812">
        <ele>2337.0034</ele>
        <time>2013-03-03T09:25:08Z</time>
      </trkpt>
      <trkpt lat="45.9771" lon="6.78787">
        <ele>2340.3008</ele>
        <time>2013-03-03T09:25:54Z</time>
      </trkpt>
      <trkpt lat="45.97707" lon="6.78762">
        <ele>2343.196</ele>
        <time>2013-03-03T09:26:26Z</time>
      </trkpt>
      <trkpt lat="45.97711" lon="6.78736">
        <ele>2340.0198</ele>
        <time>2013-03-03T09:26:58Z</time>
      </trkpt>
      <trkpt lat="45.97726" lon="6.78753">
        <ele>2370.6375</ele>
        <time>2013-03-03T09:28:07Z</time>
      </trkpt>
      <trkpt lat="45.9774" lon="6.78768">
        <ele>2377.8098</ele>
        <time>2013-03-03T09:28:37Z</time>
      </trkpt>
      <trkpt lat="45.97758" lon="6.78765">
        <ele>2380.7</ele>
        <time>2013-03-03T09:29:29Z</time>
      </trkpt>
      <trkpt lat="45.97777" lon="6.78764">
        <ele>2383.1643</ele>
        <time>2013-03-03T09:29:51Z</time>
      </trkpt>
      <trkpt lat="45.97794" lon="6.78772">
        <ele>2390.062</ele>
        <time>2013-03-03T09:30:16Z</time>
      </trkpt>
      <trkpt lat="45.97809" lon="6.78788">
        <ele>2395.5205</ele>
        <time>2013-03-03T09:30:41Z</time>
      </trkpt>
      <trkpt lat="45.97824" lon="6.78805">
        <ele>2400.1372</ele>
        <time>2013-03-03T09:31:04Z</time>
      </trkpt>
      <trkpt lat="45.97839" lon="6.7882">
        <ele>2404.4766</ele>
        <time>2013-03-03T09:31:26Z</time>
      </trkpt>
      <trkpt lat="45.97853" lon="6.78836">
        <ele>2407.8484</ele>
        <time>2013-03-03T09:31:51Z</time>
      </trkpt>
      <trkpt lat="45.97866" lon="6.78856">
        <ele>2410.9333</ele>
        <time>2013-03-03T09:32:13Z</time>
      </trkpt>
      <trkpt lat="45.97873" lon="6.7888">
        <ele>2414.6633</ele>
        <time>2013-03-03T09:38:15Z</time>
      </trkpt>
      <trkpt lat="45.97884" lon="6.78899">
        <ele>2413.3403</ele>
        <time>2013-03-03T09:38:38Z</time>
      </trkpt>
      <trkpt lat="45.97879" lon="6.78924">
        <ele>2415.3079</ele>
        <time>2013-03-03T09:39:28Z</time>
      </trkpt>
      <trkpt lat="45.97873" lon="6.78899">
        <ele>2409.3596</ele>
        <time>2013-03-03T09:41:14Z</time>
      </trkpt>
      <trkpt lat="45.97871" lon="6.78872">
        <ele>2408.887</ele>
        <time>2013-03-03T09:41:46Z</time>
      </trkpt>
      <trkpt lat="45.97859" lon="6.78851">
        <ele>2414.5425</ele>
        <time>2013-03-03T09:49:12Z</time>
      </trkpt>
      <trkpt lat="45.97847" lon="6.7883">
        <ele>2414.2556</ele>
        <time>2013-03-03T09:49:20Z</time>
      </trkpt>
      <trkpt lat="45.97829" lon="6.78811">
        <ele>2414.1057</ele>
        <time>2013-03-03T09:49:25Z</time>
      </trkpt>
      <trkpt lat="45.97812" lon="6.78793">
        <ele>2413.7556</ele>
        <time>2013-03-03T09:49:29Z</time>
      </trkpt>
      <trkpt lat="45.97795" lon="6.78778">
        <ele>2413.3984</ele>
        <time>2013-03-03T09:49:32Z</time>
      </trkpt>
      <trkpt lat="45.97777" lon="6.78768">
        <ele>2412.8962</ele>
        <time>2013-03-03T09:49:35Z</time>
      </trkpt>
      <trkpt lat="45.97759" lon="6.78762">
        <ele>2411.3276</ele>
        <time>2013-03-03T09:49:40Z</time>
      </trkpt>
      <trkpt lat="45.9774" lon="6.78765">
        <ele>2402.3948</ele>
        <time>2013-03-03T09:49:57Z</time>
      </trkpt>
      <trkpt lat="45.97729" lon="6.78743">
        <ele>2397.2356</ele>
        <time>2013-03-03T09:50:26Z</time>
      </trkpt>
      <trkpt lat="45.97716" lon="6.7872">
        <ele>2396.8118</ele>
        <time>2013-03-03T09:50:30Z</time>
      </trkpt>
      <trkpt lat="45.97702" lon="6.78704">
        <ele>2396.5627</ele>
        <time>2013-03-03T09:50:33Z</time>
      </trkpt>
      <trkpt lat="45.97687" lon="6.78688">
        <ele>2396.006</ele>
        <time>2013-03-03T09:50:36Z</time>
      </trkpt>
      <trkpt lat="45.9767" lon="6.78675">
        <ele>2395.193</ele>
        <time>2013-03-03T09:50:39Z</time>
      </trkpt>
      <trkpt lat="45.97652" lon="6.78664">
        <ele>2392.9272</ele>
        <time>2013-03-03T09:50:43Z</time>
      </trkpt>
      <trkpt lat="45.97644" lon="6.78688">
        <ele>2383.8828</ele>
        <time>2013-03-03T09:50:50Z</time>
      </trkpt>
      <trkpt lat="45.97624" lon="6.78679">
        <ele>2366.9268</ele>
        <time>2013-03-03T09:51:27Z</time>
      </trkpt>
      <trkpt lat="45.9761" lon="6.78698">
        <ele>2360.9702</ele>
        <time>2013-03-03T09:51:34Z</time>
      </trkpt>
      <trkpt lat="45.976" lon="6.7872">
        <ele>2356.9514</ele>
        <time>2013-03-03T09:51:38Z</time>
      </trkpt>
      <trkpt lat="45.97585" lon="6.78737">
        <ele>2352.0146</ele>
        <time>2013-03-03T09:51:43Z</time>
      </trkpt>
      <trkpt lat="45.97608" lon="6.78733">
        <ele>2331.3909</ele>
        <time>2013-03-03T09:52:11Z</time>
      </trkpt>
      <trkpt lat="45.97608" lon="6.7876">
        <ele>2313.4211</ele>
        <time>2013-03-03T09:52:31Z</time>
      </trkpt>
      <trkpt lat="45.97596" lon="6.78779">
        <ele>2306.601</ele>
        <time>2013-03-03T09:52:39Z</time>
      </trkpt>
      <trkpt lat="45.97578" lon="6.78765">
        <ele>2298.0303</ele>
        <time>2013-03-03T09:53:09Z</time>
      </trkpt>
      <trkpt lat="45.97561" lon="6.78757">
        <ele>2296.9973</ele>
        <time>2013-03-03T09:53:12Z</time>
      </trkpt>
      <trkpt lat="45.97543" lon="6.78745">
        <ele>2296.286</ele>
        <time>2013-03-03T09:53:14Z</time>
      </trkpt>
      <trkpt lat="45.97523" lon="6.78734">
        <ele>2295.461</ele>
        <time>2013-03-03T09:53:16Z</time>
      </trkpt>
      <trkpt lat="45.97504" lon="6.78726">
        <ele>2294.0554</ele>
        <time>2013-03-03T09:53:19Z</time>
      </trkpt>
      <trkpt lat="45.97491" lon="6.78704">
        <ele>2284.86</ele>
        <time>2013-03-03T09:53:57Z</time>
      </trkpt>
      <trkpt lat="45.97473" lon="6.78697">
        <ele>2280.8242</ele>
        <time>2013-03-03T09:54:13Z</time>
      </trkpt>
      <trkpt lat="45.97462" lon="6.78674">
        <ele>2277.3728</ele>
        <time>2013-03-03T09:54:16Z</time>
      </trkpt>
      <trkpt lat="45.97453" lon="6.78698">
        <ele>2264.3853</ele>
        <time>2013-03-03T09:54:26Z</time>
      </trkpt>
      <trkpt lat="45.97434" lon="6.78711">
        <ele>2256.9792</ele>
        <time>2013-03-03T09:54:32Z</time>
      </trkpt>
      <trkpt lat="45.97414" lon="6.78721">
        <ele>2248.559</ele>
        <time>2013-03-03T09:54:38Z</time>
      </trkpt>
      <trkpt lat="45.97392" lon="6.7873">
        <ele>2243.441</ele>
        <time>2013-03-03T09:54:42Z</time>
      </trkpt>
      <trkpt lat="45.97374" lon="6.78742">
        <ele>2239.8877</ele>
        <time>2013-03-03T09:54:45Z</time>
      </trkpt>
      <trkpt lat="45.97358" lon="6.78726">
        <ele>2221.637</ele>
        <time>2013-03-03T09:55:17Z</time>
      </trkpt>
      <trkpt lat="45.97339" lon="6.78715">
        <ele>2216.269</ele>
        <time>2013-03-03T09:55:21Z</time>
      </trkpt>
      <trkpt lat="45.97323" lon="6.78699">
        <ele>2212.1885</ele>
        <time>2013-03-03T09:55:24Z</time>
      </trkpt>
      <trkpt lat="45.97309" lon="6.78679">
        <ele>2207.8435</ele>
        <time>2013-03-03T09:55:27Z</time>
      </trkpt>
      <trkpt lat="45.97295" lon="6.7866">
        <ele>2203.4888</ele>
        <time>2013-03-03T09:55:30Z</time>
      </trkpt>
      <trkpt lat="45.97274" lon="6.78647">
        <ele>2198.5469</ele>
        <time>2013-03-03T09:55:34Z</time>
      </trkpt>
      <trkpt lat="45.97255" lon="6.78648">
        <ele>2194.0027</ele>
        <time>2013-03-03T09:55:38Z</time>
      </trkpt>
      <trkpt lat="45.97237" lon="6.78659">
        <ele>2189.5095</ele>
        <time>2013-03-03T09:55:42Z</time>
      </trkpt>
      <trkpt lat="45.97215" lon="6.78672">
        <ele>2185.0483</ele>
        <time>2013-03-03T09:55:46Z</time>
      </trkpt>
      <trkpt lat="45.97196" lon="6.78673">
        <ele>2180.1287</ele>
        <time>2013-03-03T09:55:50Z</time>
      </trkpt>
      <trkpt lat="45.97172" lon="6.78675">
        <ele>2175.3853</ele>
        <time>2013-03-03T09:55:54Z</time>
      </trkpt>
      <trkpt lat="45.97154" lon="6.78678">
        <ele>2170.8965</ele>
        <time>2013-03-03T09:55:58Z</time>
      </trkpt>
      <trkpt lat="45.97139" lon="6.78658">
        <ele>2160.8728</ele>
        <time>2013-03-03T09:56:05Z</time>
      </trkpt>
      <trkpt lat="45.9713" lon="6.78635">
        <ele>2146.9827</ele>
        <time>2013-03-03T09:56:17Z</time>
      </trkpt>
      <trkpt lat="45.97119" lon="6.78614">
        <ele>2143.863</ele>
        <time>2013-03-03T09:56:23Z</time>
      </trkpt>
      <trkpt lat="45.97106" lon="6.78591">
        <ele>2140.8035</ele>
        <time>2013-03-03T09:56:29Z</time>
      </trkpt>
      <trkpt lat="45.97092" lon="6.78568">
        <ele>2139.1858</ele>
        <time>2013-03-03T09:56:33Z</time>
      </trkpt>
      <trkpt lat="45.97071" lon="6.7856">
        <ele>2137.3738</ele>
        <time>2013-03-03T09:56:36Z</time>
      </trkpt>
      <trkpt lat="45.97048" lon="6.78567">
        <ele>2135.0203</ele>
        <time>2013-03-03T09:56:39Z</time>
      </trkpt>
      <trkpt lat="45.97031" lon="6.78558">
        <ele>2130.0354</ele>
        <time>2013-03-03T09:56:45Z</time>
      </trkpt>
      <trkpt lat="45.97013" lon="6.78539">
        <ele>2125.9897</ele>
        <time>2013-03-03T09:56:50Z</time>
      </trkpt>
      <trkpt lat="45.97002" lon="6.78515">
        <ele>2122.5593</ele>
        <time>2013-03-03T09:56:54Z</time>
      </trkpt>
      <trkpt lat="45.96989" lon="6.78487">
        <ele>2119.808</ele>
        <time>2013-03-03T09:56:58Z</time>
      </trkpt>
      <trkpt lat="45.96975" lon="6.78462">
        <ele>2117.9878</ele>
        <time>2013-03-03T09:57:02Z</time>
      </trkpt>
      <trkpt lat="45.96961" lon="6.78442">
        <ele>2116.6348</ele>
        <time>2013-03-03T09:57:06Z</time>
      </trkpt>
      <trkpt lat="45.96949" lon="6.78417">
        <ele>2114.6382</ele>
        <time>2013-03-03T09:57:11Z</time>
      </trkpt>
      <trkpt lat="45.96937" lon="6.78395">
        <ele>2112.4573</ele>
        <time>2013-03-03T09:57:16Z</time>
      </trkpt>
      <trkpt lat="45.96933" lon="6.78423">
        <ele>2098.7346</ele>
        <time>2013-03-03T09:57:36Z</time>
      </trkpt>
      <trkpt lat="45.96921" lon="6.78443">
        <ele>2094.6987</ele>
        <time>2013-03-03T09:57:44Z</time>
      </trkpt>
      <trkpt lat="45.96902" lon="6.78448">
        <ele>2092.0964</ele>
        <time>2013-03-03T09:57:49Z</time>
      </trkpt>
      <trkpt lat="45.96882" lon="6.78441">
        <ele>2088.9055</ele>
        <time>2013-03-03T09:57:54Z</time>
      </trkpt>
      <trkpt lat="45.96863" lon="6.78435">
        <ele>2086.3154</ele>
        <time>2013-03-03T09:57:58Z</time>
      </trkpt>
      <trkpt lat="45.96845" lon="6.78435">
        <ele>2084.2676</ele>
        <time>2013-03-03T09:58:01Z</time>
      </trkpt>
      <trkpt lat="45.9683" lon="6.78414">
        <ele>2081.719</ele>
        <time>2013-03-03T09:58:04Z</time>
      </trkpt>
      <trkpt lat="45.96822" lon="6.78384">
        <ele>2078.8064</ele>
        <time>2013-03-03T09:58:07Z</time>
      </trkpt>
      <trkpt lat="45.96813" lon="6.78359">
        <ele>2075.5605</ele>
        <time>2013-03-03T09:58:10Z</time>
      </trkpt>
      <trkpt lat="45.96802" lon="6.78334">
        <ele>2072.163</ele>
        <time>2013-03-03T09:58:13Z</time>
      </trkpt>
      <trkpt lat="45.96792" lon="6.78312">
        <ele>2068.4204</ele>
        <time>2013-03-03T09:58:16Z</time>
      </trkpt>
      <trkpt lat="45.96795" lon="6.78284">
        <ele>2043.8174</ele>
        <time>2013-03-03T09:59:06Z</time>
      </trkpt>
      <trkpt lat="45.96787" lon="6.78254">
        <ele>2040.7251</ele>
        <time>2013-03-03T09:59:10Z</time>
      </trkpt>
      <trkpt lat="45.96778" lon="6.78225">
        <ele>2038.3746</ele>
        <time>2013-03-03T09:59:13Z</time>
      </trkpt>
      <trkpt lat="45.96766" lon="6.78194">
        <ele>2036.0612</ele>
        <time>2013-03-03T09:59:16Z</time>
      </trkpt>
      <trkpt lat="45.9675" lon="6.78168">
        <ele>2033.1633</ele>
        <time>2013-03-03T09:59:19Z</time>
      </trkpt>
      <trkpt lat="45.96731" lon="6.78156">
        <ele>2029.1782</ele>
        <time>2013-03-03T09:59:22Z</time>
      </trkpt>
      <trkpt lat="45.96714" lon="6.78131">
        <ele>2024.6404</ele>
        <time>2013-03-03T09:59:26Z</time>
      </trkpt>
      <trkpt lat="45.96703" lon="6.78109">
        <ele>2021.4108</ele>
        <time>2013-03-03T09:59:29Z</time>
      </trkpt>
      <trkpt lat="45.96695" lon="6.78083">
        <ele>2018.6437</ele>
        <time>2013-03-03T09:59:32Z</time>
      </trkpt>
      <trkpt lat="45.96687" lon="6.7806">
        <ele>2015.7809</ele>
        <time>2013-03-03T09:59:35Z</time>
      </trkpt>
      <trkpt lat="45.96677" lon="6.78036">
        <ele>2011.738</ele>
        <time>2013-03-03T09:59:39Z</time>
      </trkpt>
      <trkpt lat="45.96672" lon="6.78002">
        <ele>1996.4279</ele>
        <time>2013-03-03T10:00:08Z</time>
      </trkpt>
      <trkpt lat="45.96661" lon="6.77974">
        <ele>1993.1678</ele>
        <time>2013-03-03T10:00:12Z</time>
      </trkpt>
      <trkpt lat="45.96652" lon="6.77951">
        <ele>1990.5223</ele>
        <time>2013-03-03T10:00:15Z</time>
      </trkpt>
      <trkpt lat="45.96638" lon="6.77934">
        <ele>1987.5657</ele>
        <time>2013-03-03T10:00:18Z</time>
      </trkpt>
      <trkpt lat="45.96622" lon="6.77917">
        <ele>1984.1339</ele>
        <time>2013-03-03T10:00:21Z</time>
      </trkpt>
      <trkpt lat="45.96601" lon="6.77902">
        <ele>1978.7112</ele>
        <time>2013-03-03T10:00:25Z</time>
      </trkpt>
      <trkpt lat="45.96579" lon="6.7789">
        <ele>1973.2919</ele>
        <time>2013-03-03T10:00:29Z</time>
      </trkpt>
      <trkpt lat="45.9656" lon="6.77875">
        <ele>1967.247</ele>
        <time>2013-03-03T10:00:33Z</time>
      </trkpt>
      <trkpt lat="45.96548" lon="6.7785">
        <ele>1961.095</ele>
        <time>2013-03-03T10:00:37Z</time>
      </trkpt>
      <trkpt lat="45.96528" lon="6.77839">
        <ele>1947.6184</ele>
        <time>2013-03-03T10:00:45Z</time>
      </trkpt>
      <trkpt lat="45.96508" lon="6.77839">
        <ele>1939.3772</ele>
        <time>2013-03-03T10:00:50Z</time>
      </trkpt>
      <trkpt lat="45.96493" lon="6.77818">
        <ele>1931.082</ele>
        <time>2013-03-03T10:00:55Z</time>
      </trkpt>
      <trkpt lat="45.96478" lon="6.77798">
        <ele>1923.7064</ele>
        <time>2013-03-03T10:01:00Z</time>
      </trkpt>
      <trkpt lat="45.9646" lon="6.77788">
        <ele>1918.2977</ele>
        <time>2013-03-03T10:01:04Z</time>
      </trkpt>
      <trkpt lat="45.9644" lon="6.77777">
        <ele>1912.4128</ele>
        <time>2013-03-03T10:01:09Z</time>
      </trkpt>
      <trkpt lat="45.96429" lon="6.77756">
        <ele>1905.0372</ele>
        <time>2013-03-03T10:01:15Z</time>
      </trkpt>
      <trkpt lat="45.96442" lon="6.77737">
        <ele>1893.9252</ele>
        <time>2013-03-03T10:01:37Z</time>
      </trkpt>
      <trkpt lat="45.96431" lon="6.77758">
        <ele>1876.9673</ele>
        <time>2013-03-03T10:02:59Z</time>
      </trkpt>
      <trkpt lat="45.96418" lon="6.77739">
        <ele>1870.452</ele>
        <time>2013-03-03T10:03:13Z</time>
      </trkpt>
      <trkpt lat="45.964" lon="6.77744">
        <ele>1865.882</ele>
        <time>2013-03-03T10:03:23Z</time>
      </trkpt>
      <trkpt lat="45.96397" lon="6.77716">
        <ele>1858.5428</ele>
        <time>2013-03-03T10:03:37Z</time>
      </trkpt>
      <trkpt lat="45.96405" lon="6.77692">
        <ele>1856.0302</ele>
        <time>2013-03-03T10:03:44Z</time>
      </trkpt>
      <trkpt lat="45.96416" lon="6.77659">
        <ele>1853.9869</ele>
        <time>2013-03-03T10:03:49Z</time>
      </trkpt>
      <trkpt lat="45.96412" lon="6.77632">
        <ele>1847.8588</ele>
        <time>2013-03-03T10:03:57Z</time>
      </trkpt>
      <trkpt lat="45.96401" lon="6.7761">
        <ele>1842.6002</ele>
        <time>2013-03-03T10:04:03Z</time>
      </trkpt>
      <trkpt lat="45.96412" lon="6.77589">
        <ele>1833.2211</ele>
        <time>2013-03-03T10:04:35Z</time>
      </trkpt>
      <trkpt lat="45.96406" lon="6.77563">
        <ele>1825.7047</ele>
        <time>2013-03-03T10:04:42Z</time>
      </trkpt>
      <trkpt lat="45.96389" lon="6.77543">
        <ele>1818.0356</ele>
        <time>2013-03-03T10:04:49Z</time>
      </trkpt>
      <trkpt lat="45.96377" lon="6.7751">
        <ele>1814.9822</ele>
        <time>2013-03-03T10:04:52Z</time>
      </trkpt>
      <trkpt lat="45.96371" lon="6.77479">
        <ele>1812.5088</ele>
        <time>2013-03-03T10:04:54Z</time>
      </trkpt>
      <trkpt lat="45.96376" lon="6.77447">
        <ele>1808.6737</ele>
        <time>2013-03-03T10:04:56Z</time>
      </trkpt>
      <trkpt lat="45.96367" lon="6.7742">
        <ele>1803.7701</ele>
        <time>2013-03-03T10:04:59Z</time>
      </trkpt>
      <trkpt lat="45.96352" lon="6.77398">
        <ele>1798.1128</ele>
        <time>2013-03-03T10:05:03Z</time>
      </trkpt>
      <trkpt lat="45.96343" lon="6.77371">
        <ele>1792.2257</ele>
        <time>2013-03-03T10:05:08Z</time>
      </trkpt>
      <trkpt lat="45.96338" lon="6.77342">
        <ele>1787.5994</ele>
        <time>2013-03-03T10:05:13Z</time>
      </trkpt>
      <trkpt lat="45.9633" lon="6.77315">
        <ele>1784.5272</ele>
        <time>2013-03-03T10:05:18Z</time>
      </trkpt>
      <trkpt lat="45.96327" lon="6.77288">
        <ele>1781.4211</ele>
        <time>2013-03-03T10:05:24Z</time>
      </trkpt>
      <trkpt lat="45.96323" lon="6.77259">
        <ele>1779.7091</ele>
        <time>2013-03-03T10:05:29Z</time>
      </trkpt>
      <trkpt lat="45.96323" lon="6.77226">
        <ele>1778.4529</ele>
        <time>2013-03-03T10:05:33Z</time>
      </trkpt>
      <trkpt lat="45.96322" lon="6.77197">
        <ele>1777.305</ele>
        <time>2013-03-03T10:05:36Z</time>
      </trkpt>
      <trkpt lat="45.96323" lon="6.7717">
        <ele>1776.1068</ele>
        <time>2013-03-03T10:05:39Z</time>
      </trkpt>
      <trkpt lat="45.96329" lon="6.77139">
        <ele>1773.7865</ele>
        <time>2013-03-03T10:05:43Z</time>
      </trkpt>
      <trkpt lat="45.96328" lon="6.7711">
        <ele>1770.2478</ele>
        <time>2013-03-03T10:05:47Z</time>
      </trkpt>
      <trkpt lat="45.96327" lon="6.77081">
        <ele>1766.8741</ele>
        <time>2013-03-03T10:05:51Z</time>
      </trkpt>
      <trkpt lat="45.96326" lon="6.77055">
        <ele>1764.7</ele>
        <time>2013-03-03T10:05:54Z</time>
      </trkpt>
      <trkpt lat="45.96323" lon="6.77028">
        <ele>1762.4609</ele>
        <time>2013-03-03T10:05:57Z</time>
      </trkpt>
      <trkpt lat="45.96316" lon="6.76999">
        <ele>1758.9841</ele>
        <time>2013-03-03T10:06:01Z</time>
      </trkpt>
      <trkpt lat="45.96302" lon="6.76972">
        <ele>1755.6848</ele>
        <time>2013-03-03T10:06:05Z</time>
      </trkpt>
      <trkpt lat="45.96284" lon="6.76967">
        <ele>1753.5728</ele>
        <time>2013-03-03T10:06:07Z</time>
      </trkpt>
      <trkpt lat="45.96266" lon="6.7696">
        <ele>1747.8317</ele>
        <time>2013-03-03T10:06:13Z</time>
      </trkpt>
      <trkpt lat="45.96249" lon="6.76947">
        <ele>1739.1786</ele>
        <time>2013-03-03T10:06:25Z</time>
      </trkpt>
      <trkpt lat="45.96235" lon="6.76927">
        <ele>1732.5249</ele>
        <time>2013-03-03T10:06:56Z</time>
      </trkpt>
      <trkpt lat="45.96221" lon="6.76905">
        <ele>1731.2041</ele>
        <time>2013-03-03T10:07:02Z</time>
      </trkpt>
      <trkpt lat="45.96212" lon="6.76881">
        <ele>1730.2991</ele>
        <time>2013-03-03T10:07:07Z</time>
      </trkpt>
      <trkpt lat="45.96201" lon="6.76857">
        <ele>1729.4994</ele>
        <time>2013-03-03T10:07:11Z</time>
      </trkpt>
      <trkpt lat="45.96188" lon="6.7683">
        <ele>1728.6201</ele>
        <time>2013-03-03T10:07:15Z</time>
      </trkpt>
      <trkpt lat="45.96172" lon="6.7681">
        <ele>1727.0896</ele>
        <time>2013-03-03T10:07:19Z</time>
      </trkpt>
      <trkpt lat="45.96156" lon="6.76796">
        <ele>1719.9833</ele>
        <time>2013-03-03T10:07:40Z</time>
      </trkpt>
      <trkpt lat="45.96145" lon="6.76775">
        <ele>1717.4414</ele>
        <time>2013-03-03T10:07:54Z</time>
      </trkpt>
      <trkpt lat="45.9613" lon="6.76757">
        <ele>1716.4307</ele>
        <time>2013-03-03T10:08:03Z</time>
      </trkpt>
      <trkpt lat="45.96116" lon="6.76741">
        <ele>1716.0544</ele>
        <time>2013-03-03T10:08:10Z</time>
      </trkpt>
      <trkpt lat="45.96103" lon="6.76721">
        <ele>1715.8585</ele>
        <time>2013-03-03T10:08:18Z</time>
      </trkpt>
      <trkpt lat="45.96089" lon="6.76697">
        <ele>1714.7078</ele>
        <time>2013-03-03T10:08:23Z</time>
      </trkpt>
      <trkpt lat="45.96075" lon="6.76679">
        <ele>1713.5791</ele>
        <time>2013-03-03T10:08:27Z</time>
      </trkpt>
      <trkpt lat="45.96059" lon="6.76662">
        <ele>1712.4761</ele>
        <time>2013-03-03T10:08:31Z</time>
      </trkpt>
      <trkpt lat="45.96038" lon="6.76645">
        <ele>1711.2839</ele>
        <time>2013-03-03T10:08:35Z</time>
      </trkpt>
      <trkpt lat="45.96019" lon="6.76634">
        <ele>1710.062</ele>
        <time>2013-03-03T10:08:39Z</time>
      </trkpt>
      <trkpt lat="45.96005" lon="6.76618">
        <ele>1709.0151</ele>
        <time>2013-03-03T10:08:47Z</time>
      </trkpt>
      <trkpt lat="45.95992" lon="6.766">
        <ele>1708.1503</ele>
        <time>2013-03-03T10:09:03Z</time>
      </trkpt>
      <trkpt lat="45.9598" lon="6.76579">
        <ele>1706.7473</ele>
        <time>2013-03-03T10:09:11Z</time>
      </trkpt>
      <trkpt lat="45.95964" lon="6.76565">
        <ele>1705.4873</ele>
        <time>2013-03-03T10:09:18Z</time>
      </trkpt>
      <trkpt lat="45.95949" lon="6.76549">
        <ele>1703.9418</ele>
        <time>2013-03-03T10:09:23Z</time>
      </trkpt>
      <trkpt lat="45.95931" lon="6.76535">
        <ele>1703.239</ele>
        <time>2013-03-03T10:09:27Z</time>
      </trkpt>
      <trkpt lat="45.95919" lon="6.76515">
        <ele>1702.0558</ele>
        <time>2013-03-03T10:09:31Z</time>
      </trkpt>
      <trkpt lat="45.95913" lon="6.7649">
        <ele>1699.7194</ele>
        <time>2013-03-03T10:09:44Z</time>
      </trkpt>
      <trkpt lat="45.95903" lon="6.76467">
        <ele>1699.6395</ele>
        <time>2013-03-03T10:09:53Z</time>
      </trkpt>
      <trkpt lat="45.95898" lon="6.7644">
        <ele>1696.7599</ele>
        <time>2013-03-03T10:10:11Z</time>
      </trkpt>
      <trkpt lat="45.95902" lon="6.76415">
        <ele>1695.3667</ele>
        <time>2013-03-03T10:10:29Z</time>
      </trkpt>
      <trkpt lat="45.95902" lon="6.76378">
        <ele>1693.3997</ele>
        <time>2013-03-03T10:10:45Z</time>
      </trkpt>
      <trkpt lat="45.95893" lon="6.76353">
        <ele>1692.953</ele>
        <time>2013-03-03T10:10:49Z</time>
      </trkpt>
      <trkpt lat="45.95886" lon="6.76328">
        <ele>1691.0951</ele>
        <time>2013-03-03T10:11:02Z</time>
      </trkpt>
      <trkpt lat="45.95868" lon="6.76324">
        <ele>1690.38</ele>
        <time>2013-03-03T10:11:12Z</time>
      </trkpt>
      <trkpt lat="45.9585" lon="6.76319">
        <ele>1688.8931</ele>
        <time>2013-03-03T10:11:31Z</time>
      </trkpt>
      <trkpt lat="45.95836" lon="6.76299">
        <ele>1687.8809</ele>
        <time>2013-03-03T10:12:37Z</time>
      </trkpt>
      <trkpt lat="45.95815" lon="6.7629">
        <ele>1686.5023</ele>
        <time>2013-03-03T10:12:43Z</time>
      </trkpt>
      <trkpt lat="45.95797" lon="6.76283">
        <ele>1685.3302</ele>
        <time>2013-03-03T10:12:48Z</time>
      </trkpt>
      <trkpt lat="45.95779" lon="6.76276">
        <ele>1684.3027</ele>
        <time>2013-03-03T10:12:54Z</time>
      </trkpt>
      <trkpt lat="45.95767" lon="6.76258">
        <ele>1682.4785</ele>
        <time>2013-03-03T10:13:11Z</time>
      </trkpt>
      <trkpt lat="45.95748" lon="6.76257">
        <ele>1681.4172</ele>
        <time>2013-03-03T10:13:29Z</time>
      </trkpt>
      <trkpt lat="45.95736" lon="6.76236">
        <ele>1681.4636</ele>
        <time>2013-03-03T10:13:51Z</time>
      </trkpt>
      <trkpt lat="45.9573" lon="6.76209">
        <ele>1680.0315</ele>
        <time>2013-03-03T10:13:59Z</time>
      </trkpt>
      <trkpt lat="45.95717" lon="6.76191">
        <ele>1680.1367</ele>
        <time>2013-03-03T10:14:11Z</time>
      </trkpt>
      <trkpt lat="45.95708" lon="6.76164">
        <ele>1678.8291</ele>
        <time>2013-03-03T10:14:19Z</time>
      </trkpt>
      <trkpt lat="45.95696" lon="6.76144">
        <ele>1677.034</ele>
        <time>2013-03-03T10:14:25Z</time>
      </trkpt>
      <trkpt lat="45.95695" lon="6.76117">
        <ele>1670.1368</ele>
        <time>2013-03-03T10:14:49Z</time>
      </trkpt>
      <trkpt lat="45.95707" lon="6.76094">
        <ele>1669.6638</ele>
        <time>2013-03-03T10:14:56Z</time>
      </trkpt>
      <trkpt lat="45.95711" lon="6.76068">
        <ele>1669.9028</ele>
        <time>2013-03-03T10:15:06Z</time>
      </trkpt>
      <trkpt lat="45.957" lon="6.76045">
        <ele>1670.367</ele>
        <time>2013-03-03T10:15:21Z</time>
      </trkpt>
      <trkpt lat="45.95695" lon="6.7602">
        <ele>1669.882</ele>
        <time>2013-03-03T10:15:37Z</time>
      </trkpt>
      <trkpt lat="45.95685" lon="6.75997">
        <ele>1664.1041</ele>
        <time>2013-03-03T10:15:47Z</time>
      </trkpt>
      <trkpt lat="45.95686" lon="6.75971">
        <ele>1660.3593</ele>
        <time>2013-03-03T10:15:58Z</time>
      </trkpt>
      <trkpt lat="45.95675" lon="6.75949">
        <ele>1660.5403</ele>
        <time>2013-03-03T10:16:10Z</time>
      </trkpt>
      <trkpt lat="45.95659" lon="6.75936">
        <ele>1660.8181</ele>
        <time>2013-03-03T10:16:23Z</time>
      </trkpt>
      <trkpt lat="45.95649" lon="6.75914">
        <ele>1659.8398</ele>
        <time>2013-03-03T10:16:49Z</time>
      </trkpt>
      <trkpt lat="45.95648" lon="6.75887">
        <ele>1663.0409</ele>
        <time>2013-03-03T10:17:07Z</time>
      </trkpt>
      <trkpt lat="45.9564" lon="6.75862">
        <ele>1663.5264</ele>
        <time>2013-03-03T10:17:17Z</time>
      </trkpt>
      <trkpt lat="45.95638" lon="6.75834">
        <ele>1662.3883</ele>
        <time>2013-03-03T10:17:24Z</time>
      </trkpt>
      <trkpt lat="45.95617" lon="6.7583">
        <ele>1659.3093</ele>
        <time>2013-03-03T10:17:31Z</time>
      </trkpt>
      <trkpt lat="45.95598" lon="6.75814">
        <ele>1657.2562</ele>
        <time>2013-03-03T10:17:35Z</time>
      </trkpt>
      <trkpt lat="45.9559" lon="6.7579">
        <ele>1656.3878</ele>
        <time>2013-03-03T10:17:37Z</time>
      </trkpt>
      <trkpt lat="45.95602" lon="6.7577">
        <ele>1651.8203</ele>
        <time>2013-03-03T10:18:37Z</time>
      </trkpt>
      <trkpt lat="45.95611" lon="6.75747">
        <ele>1656.4808</ele>
        <time>2013-03-03T10:19:09Z</time>
      </trkpt>
      <trkpt lat="45.95621" lon="6.75725">
        <ele>1662.4373</ele>
        <time>2013-03-03T10:19:38Z</time>
      </trkpt>
      <trkpt lat="45.95626" lon="6.757">
        <ele>1669.3994</ele>
        <time>2013-03-03T10:20:04Z</time>
      </trkpt>
      <trkpt lat="45.95627" lon="6.75673">
        <ele>1670.1547</ele>
        <time>2013-03-03T10:21:28Z</time>
      </trkpt>
      <trkpt lat="45.95628" lon="6.75646">
        <ele>1668.454</ele>
        <time>2013-03-03T10:21:36Z</time>
      </trkpt>
      <trkpt lat="45.95631" lon="6.75619">
        <ele>1668.0044</ele>
        <time>2013-03-03T10:21:43Z</time>
      </trkpt>
      <trkpt lat="45.95634" lon="6.75588">
        <ele>1667.351</ele>
        <time>2013-03-03T10:21:49Z</time>
      </trkpt>
      <trkpt lat="45.95639" lon="6.75561">
        <ele>1667.3416</ele>
        <time>2013-03-03T10:21:53Z</time>
      </trkpt>
      <trkpt lat="45.95646" lon="6.75531">
        <ele>1667.8195</ele>
        <time>2013-03-03T10:21:58Z</time>
      </trkpt>
      <trkpt lat="45.9565" lon="6.75504">
        <ele>1668.9591</ele>
        <time>2013-03-03T10:22:04Z</time>
      </trkpt>
      <trkpt lat="45.95652" lon="6.75478">
        <ele>1669.4457</ele>
        <time>2013-03-03T10:22:11Z</time>
      </trkpt>
      <trkpt lat="45.95653" lon="6.75451">
        <ele>1669.165</ele>
        <time>2013-03-03T10:22:16Z</time>
      </trkpt>
      <trkpt lat="45.95652" lon="6.75423">
        <ele>1669.1487</ele>
        <time>2013-03-03T10:22:21Z</time>
      </trkpt>
      <trkpt lat="45.9565" lon="6.75397">
        <ele>1669.8578</ele>
        <time>2013-03-03T10:22:35Z</time>
      </trkpt>
      <trkpt lat="45.95647" lon="6.7537">
        <ele>1669.4657</ele>
        <time>2013-03-03T10:22:47Z</time>
      </trkpt>
      <trkpt lat="45.95645" lon="6.75342">
        <ele>1670.8127</ele>
        <time>2013-03-03T10:22:55Z</time>
      </trkpt>
      <trkpt lat="45.95636" lon="6.75317">
        <ele>1672.1682</ele>
        <time>2013-03-03T10:23:04Z</time>
      </trkpt>
      <trkpt lat="45.95623" lon="6.75297">
        <ele>1671.5682</ele>
        <time>2013-03-03T10:23:10Z</time>
      </trkpt>
      <trkpt lat="45.95615" lon="6.75272">
        <ele>1671.4755</ele>
        <time>2013-03-03T10:23:18Z</time>
      </trkpt>
      <trkpt lat="45.9561" lon="6.75246">
        <ele>1672.268</ele>
        <time>2013-03-03T10:23:31Z</time>
      </trkpt>
      <trkpt lat="45.95609" lon="6.75219">
        <ele>1673.2458</ele>
        <time>2013-03-03T10:23:44Z</time>
      </trkpt>
      <trkpt lat="45.95608" lon="6.75191">
        <ele>1674.9568</ele>
        <time>2013-03-03T10:23:52Z</time>
      </trkpt>
      <trkpt lat="45.95605" lon="6.7516">
        <ele>1675.9171</ele>
        <time>2013-03-03T10:24:01Z</time>
      </trkpt>
      <trkpt lat="45.95601" lon="6.75132">
        <ele>1674.991</ele>
        <time>2013-03-03T10:24:05Z</time>
      </trkpt>
      <trkpt lat="45.956" lon="6.75101">
        <ele>1673.9823</ele>
        <time>2013-03-03T10:24:09Z</time>
      </trkpt>
      <trkpt lat="45.95599" lon="6.75069">
        <ele>1673.6395</ele>
        <time>2013-03-03T10:24:14Z</time>
      </trkpt>
      <trkpt lat="45.95599" lon="6.75041">
        <ele>1673.5931</ele>
        <time>2013-03-03T10:24:46Z</time>
      </trkpt>
      <trkpt lat="45.95593" lon="6.7501">
        <ele>1672.5603</ele>
        <time>2013-03-03T10:24:50Z</time>
      </trkpt>
      <trkpt lat="45.95583" lon="6.74975">
        <ele>1671.5302</ele>
        <time>2013-03-03T10:24:53Z</time>
      </trkpt>
      <trkpt lat="45.95576" lon="6.74942">
        <ele>1670.355</ele>
        <time>2013-03-03T10:24:56Z</time>
      </trkpt>
      <trkpt lat="45.95567" lon="6.74907">
        <ele>1668.3934</ele>
        <time>2013-03-03T10:24:59Z</time>
      </trkpt>
      <trkpt lat="45.95557" lon="6.74882">
        <ele>1666.5026</ele>
        <time>2013-03-03T10:25:01Z</time>
      </trkpt>
      <trkpt lat="45.95545" lon="6.74861">
        <ele>1663.8639</ele>
        <time>2013-03-03T10:25:03Z</time>
      </trkpt>
      <trkpt lat="45.95529" lon="6.74838">
        <ele>1659.1707</ele>
        <time>2013-03-03T10:25:06Z</time>
      </trkpt>
      <trkpt lat="45.95518" lon="6.74816">
        <ele>1655.1736</ele>
        <time>2013-03-03T10:25:09Z</time>
      </trkpt>
      <trkpt lat="45.95506" lon="6.74781">
        <ele>1651.8373</ele>
        <time>2013-03-03T10:25:12Z</time>
      </trkpt>
      <trkpt lat="45.9551" lon="6.74744">
        <ele>1647.7142</ele>
        <time>2013-03-03T10:25:15Z</time>
      </trkpt>
      <trkpt lat="45.95512" lon="6.74718">
        <ele>1644.308</ele>
        <time>2013-03-03T10:25:17Z</time>
      </trkpt>
      <trkpt lat="45.95513" lon="6.74689">
        <ele>1637.5643</ele>
        <time>2013-03-03T10:25:20Z</time>
      </trkpt>
      <trkpt lat="45.95521" lon="6.74663">
        <ele>1629.7772</ele>
        <time>2013-03-03T10:25:23Z</time>
      </trkpt>
      <trkpt lat="45.95525" lon="6.74629">
        <ele>1621.5889</ele>
        <time>2013-03-03T10:25:26Z</time>
      </trkpt>
      <trkpt lat="45.95528" lon="6.74599">
        <ele>1613.2078</ele>
        <time>2013-03-03T10:25:29Z</time>
      </trkpt>
      <trkpt lat="45.95534" lon="6.74574">
        <ele>1594.9409</ele>
        <time>2013-03-03T10:25:50Z</time>
      </trkpt>
      <trkpt lat="45.95538" lon="6.7454">
        <ele>1593.1658</ele>
        <time>2013-03-03T10:25:53Z</time>
      </trkpt>
      <trkpt lat="45.95533" lon="6.74515">
        <ele>1591.0432</ele>
        <time>2013-03-03T10:25:55Z</time>
      </trkpt>
      <trkpt lat="45.95522" lon="6.74495">
        <ele>1588.1931</ele>
        <time>2013-03-03T10:25:57Z</time>
      </trkpt>
      <trkpt lat="45.95491" lon="6.74486">
        <ele>1584.8711</ele>
        <time>2013-03-03T10:25:59Z</time>
      </trkpt>
      <trkpt lat="45.95463" lon="6.74494">
        <ele>1580.99</ele>
        <time>2013-03-03T10:26:01Z</time>
      </trkpt>
      <trkpt lat="45.9544" lon="6.74506">
        <ele>1577.0819</ele>
        <time>2013-03-03T10:26:03Z</time>
      </trkpt>
      <trkpt lat="45.95419" lon="6.74522">
        <ele>1573.0773</ele>
        <time>2013-03-03T10:26:05Z</time>
      </trkpt>
      <trkpt lat="45.95398" lon="6.74529">
        <ele>1567.7059</ele>
        <time>2013-03-03T10:26:07Z</time>
      </trkpt>
      <trkpt lat="45.95375" lon="6.74528">
        <ele>1561.9409</ele>
        <time>2013-03-03T10:26:09Z</time>
      </trkpt>
      <trkpt lat="45.95354" lon="6.74526">
        <ele>1555.6605</ele>
        <time>2013-03-03T10:26:11Z</time>
      </trkpt>
      <trkpt lat="45.95335" lon="6.74514">
        <ele>1548.084</ele>
        <time>2013-03-03T10:26:13Z</time>
      </trkpt>
      <trkpt lat="45.95315" lon="6.74505">
        <ele>1540.1472</ele>
        <time>2013-03-03T10:26:15Z</time>
      </trkpt>
      <trkpt lat="45.95294" lon="6.74482">
        <ele>1528.5465</ele>
        <time>2013-03-03T10:26:18Z</time>
      </trkpt>
      <trkpt lat="45.95283" lon="6.74453">
        <ele>1517.198</ele>
        <time>2013-03-03T10:26:35Z</time>
      </trkpt>
      <trkpt lat="45.95265" lon="6.74429">
        <ele>1515.9382</ele>
        <time>2013-03-03T10:26:38Z</time>
      </trkpt>
      <trkpt lat="45.95257" lon="6.74406">
        <ele>1514.8715</ele>
        <time>2013-03-03T10:26:40Z</time>
      </trkpt>
      <trkpt lat="45.95253" lon="6.74378">
        <ele>1513.5215</ele>
        <time>2013-03-03T10:26:42Z</time>
      </trkpt>
      <trkpt lat="45.95227" lon="6.74361">
        <ele>1510.4185</ele>
        <time>2013-03-03T10:26:45Z</time>
      </trkpt>
      <trkpt lat="45.95204" lon="6.74364">
        <ele>1507.8229</ele>
        <time>2013-03-03T10:26:47Z</time>
      </trkpt>
      <trkpt lat="45.95183" lon="6.74374">
        <ele>1505.2004</ele>
        <time>2013-03-03T10:26:49Z</time>
      </trkpt>
      <trkpt lat="45.95164" lon="6.7438">
        <ele>1502.219</ele>
        <time>2013-03-03T10:26:51Z</time>
      </trkpt>
    </trkseg>
  </trk>
</gpx>